sensor_id;sensor_type;location;lat;lon;timestamp;temperature;humidity
31735;DHT22;18313;48.518;9.124;2023-02-19T00:01:46;10.60;99.90
31735;DHT22;18313;48.518;9.124;2023-02-19T00:04:19;10.60;99.90
31735;DHT22;18313;48.518;9.124;2023-02-19T00:06:48;10.70;99.90
31735;DHT22;18313;48.518;9.124;2023-02-19T00:09:17;10.60;99.90
31735;DHT22;18313;48.518;9.124;2023-02-19T00:11:45;10.50;99.90
31735;DHT22;18313;48.518;9.124;2023-02-19T00:14:15;10.60;99.90
31735;DHT22;18313;48.518;9.124;2023-02-19T00:16:42;10.60;99.90
31735;DHT22;18313;48.518;9.124;2023-02-19T00:19:13;10.80;99.90
31735;DHT22;18313;48.518;9.124;2023-02-19T00:21:40;10.80;99.90
31735;DHT22;18313;48.518;9.124;2023-02-19T00:24:10;10.80;99.90
31735;DHT22;18313;48.518;9.124;2023-02-19T00:26:37;10.80;99.90
31735;DHT22;18313;48.518;9.124;2023-02-19T00:29:06;10.80;99.90
31735;DHT22;18313;48.518;9.124;2023-02-19T00:31:34;10.80;99.90
31735;DHT22;18313;48.518;9.124;2023-02-19T00:34:03;10.90;99.90
31735;DHT22;18313;48.518;9.124;2023-02-19T00:36:32;10.90;99.90
31735;DHT22;18313;48.518;9.124;2023-02-19T00:39:00;10.90;99.90
31735;DHT22;18313;48.518;9.124;2023-02-19T00:41:27;11.00;99.90
31735;DHT22;18313;48.518;9.124;2023-02-19T00:43:58;11.00;99.90
31735;DHT22;18313;48.518;9.124;2023-02-19T00:48:53;11.00;99.90
31735;DHT22;18313;48.518;9.124;2023-02-19T00:51:23;11.00;99.90
31735;DHT22;18313;48.518;9.124;2023-02-19T00:53:50;11.00;99.90
31735;DHT22;18313;48.518;9.124;2023-02-19T00:56:18;11.00;99.90
31735;DHT22;18313;48.518;9.124;2023-02-19T00:58:46;11.10;99.90
31735;DHT22;18313;48.518;9.124;2023-02-19T01:01:15;11.10;99.90
31735;DHT22;18313;48.518;9.124;2023-02-19T01:03:42;11.10;99.90
31735;DHT22;18313;48.518;9.124;2023-02-19T01:06:10;11.10;99.90
31735;DHT22;18313;48.518;9.124;2023-02-19T01:08:39;11.10;99.90
31735;DHT22;18313;48.518;9.124;2023-02-19T01:11:07;11.20;99.90
31735;DHT22;18313;48.518;9.124;2023-02-19T01:13:35;11.20;99.90
31735;DHT22;18313;48.518;9.124;2023-02-19T01:16:03;11.20;99.90
31735;DHT22;18313;48.518;9.124;2023-02-19T01:18:30;11.20;99.90
31735;DHT22;18313;48.518;9.124;2023-02-19T01:20:57;11.20;99.90
31735;DHT22;18313;48.518;9.124;2023-02-19T01:23:24;11.30;99.90
31735;DHT22;18313;48.518;9.124;2023-02-19T01:25:52;11.30;99.90
31735;DHT22;18313;48.518;9.124;2023-02-19T01:28:19;11.30;99.90
31735;DHT22;18313;48.518;9.124;2023-02-19T01:30:46;11.20;99.90
31735;DHT22;18313;48.518;9.124;2023-02-19T01:33:13;11.30;99.90
31735;DHT22;18313;48.518;9.124;2023-02-19T01:35:40;11.30;99.90
31735;DHT22;18313;48.518;9.124;2023-02-19T01:38:07;11.20;99.90
31735;DHT22;18313;48.518;9.124;2023-02-19T01:40:34;11.20;99.90
31735;DHT22;18313;48.518;9.124;2023-02-19T01:43:01;11.30;99.90
31735;DHT22;18313;48.518;9.124;2023-02-19T01:45:31;11.30;99.90
31735;DHT22;18313;48.518;9.124;2023-02-19T01:48:11;11.20;99.90
31735;DHT22;18313;48.518;9.124;2023-02-19T01:50:46;11.20;99.90
31735;DHT22;18313;48.518;9.124;2023-02-19T01:53:16;11.20;99.90
31735;DHT22;18313;48.518;9.124;2023-02-19T01:55:47;11.20;99.90
31735;DHT22;18313;48.518;9.124;2023-02-19T01:58:16;11.20;99.90
31735;DHT22;18313;48.518;9.124;2023-02-19T02:00:43;11.10;99.90
31735;DHT22;18313;48.518;9.124;2023-02-19T02:03:11;11.10;99.90
31735;DHT22;18313;48.518;9.124;2023-02-19T02:05:41;11.10;99.90
31735;DHT22;18313;48.518;9.124;2023-02-19T02:08:11;11.10;99.90
31735;DHT22;18313;48.518;9.124;2023-02-19T02:10:57;11.10;99.90
31735;DHT22;18313;48.518;9.124;2023-02-19T02:13:25;11.10;99.90
31735;DHT22;18313;48.518;9.124;2023-02-19T02:16:01;11.10;99.90
31735;DHT22;18313;48.518;9.124;2023-02-19T02:18:53;11.10;99.90
31735;DHT22;18313;48.518;9.124;2023-02-19T02:29:55;11.10;99.90
31735;DHT22;18313;48.518;9.124;2023-02-19T02:32:34;11.10;99.90
31735;DHT22;18313;48.518;9.124;2023-02-19T02:35:07;11.10;99.90
31735;DHT22;18313;48.518;9.124;2023-02-19T02:37:38;11.00;99.90
31735;DHT22;18313;48.518;9.124;2023-02-19T02:40:07;11.00;99.90
31735;DHT22;18313;48.518;9.124;2023-02-19T02:42:38;11.00;99.90
31735;DHT22;18313;48.518;9.124;2023-02-19T02:48:06;10.90;99.90
31735;DHT22;18313;48.518;9.124;2023-02-19T02:50:41;10.90;99.90
31735;DHT22;18313;48.518;9.124;2023-02-19T02:53:18;10.90;99.90
31735;DHT22;18313;48.518;9.124;2023-02-19T02:56:06;10.90;99.90
31735;DHT22;18313;48.518;9.124;2023-02-19T02:58:33;10.90;99.90
31735;DHT22;18313;48.518;9.124;2023-02-19T03:01:11;10.90;99.90
31735;DHT22;18313;48.518;9.124;2023-02-19T03:04:03;10.80;99.90
31735;DHT22;18313;48.518;9.124;2023-02-19T03:06:34;10.80;99.90
31735;DHT22;18313;48.518;9.124;2023-02-19T03:09:10;10.80;99.90
31735;DHT22;18313;48.518;9.124;2023-02-19T03:11:45;10.80;99.90
31735;DHT22;18313;48.518;9.124;2023-02-19T03:14:38;10.80;99.90
31735;DHT22;18313;48.518;9.124;2023-02-19T03:17:34;10.80;99.90
31735;DHT22;18313;48.518;9.124;2023-02-19T03:20:23;10.70;99.90
31735;DHT22;18313;48.518;9.124;2023-02-19T03:22:51;10.70;99.90
31735;DHT22;18313;48.518;9.124;2023-02-19T03:25:23;10.70;99.90
31735;DHT22;18313;48.518;9.124;2023-02-19T03:28:11;10.70;99.90
31735;DHT22;18313;48.518;9.124;2023-02-19T03:30:51;10.60;99.90
31735;DHT22;18313;48.518;9.124;2023-02-19T03:33:22;10.60;99.90
31735;DHT22;18313;48.518;9.124;2023-02-19T03:36:02;10.60;99.90
31735;DHT22;18313;48.518;9.124;2023-02-19T03:38:40;10.60;99.90
31735;DHT22;18313;48.518;9.124;2023-02-19T03:44:26;10.60;99.90
31735;DHT22;18313;48.518;9.124;2023-02-19T03:47:07;10.60;99.90
31735;DHT22;18313;48.518;9.124;2023-02-19T03:49:44;10.60;99.90
31735;DHT22;18313;48.518;9.124;2023-02-19T03:55:09;10.60;99.90
31735;DHT22;18313;48.518;9.124;2023-02-19T03:57:52;10.60;99.90
31735;DHT22;18313;48.518;9.124;2023-02-19T04:00:29;10.50;99.90
31735;DHT22;18313;48.518;9.124;2023-02-19T04:05:33;10.50;99.90
31735;DHT22;18313;48.518;9.124;2023-02-19T04:08:09;10.40;99.90
31735;DHT22;18313;48.518;9.124;2023-02-19T04:10:37;10.40;99.90
31735;DHT22;18313;48.518;9.124;2023-02-19T04:13:19;10.30;99.90
31735;DHT22;18313;48.518;9.124;2023-02-19T04:15:48;10.30;99.90
31735;DHT22;18313;48.518;9.124;2023-02-19T04:18:18;10.30;99.90
31735;DHT22;18313;48.518;9.124;2023-02-19T04:20:47;10.30;99.90
31735;DHT22;18313;48.518;9.124;2023-02-19T04:23:17;10.30;99.90
31735;DHT22;18313;48.518;9.124;2023-02-19T04:25:47;10.30;99.90
31735;DHT22;18313;48.518;9.124;2023-02-19T04:28:16;10.40;99.90
31735;DHT22;18313;48.518;9.124;2023-02-19T04:30:44;10.30;99.90
31735;DHT22;18313;48.518;9.124;2023-02-19T04:33:11;10.20;99.90
31735;DHT22;18313;48.518;9.124;2023-02-19T04:35:38;10.20;99.90
31735;DHT22;18313;48.518;9.124;2023-02-19T04:38:05;10.20;99.90
31735;DHT22;18313;48.518;9.124;2023-02-19T04:40:32;10.20;99.90
31735;DHT22;18313;48.518;9.124;2023-02-19T04:42:59;10.10;99.90
31735;DHT22;18313;48.518;9.124;2023-02-19T04:45:27;10.10;99.90
31735;DHT22;18313;48.518;9.124;2023-02-19T04:47:55;10.10;99.90
31735;DHT22;18313;48.518;9.124;2023-02-19T04:50:23;10.10;99.90
31735;DHT22;18313;48.518;9.124;2023-02-19T04:52:50;10.10;99.90
31735;DHT22;18313;48.518;9.124;2023-02-19T04:55:17;10.00;99.90
31735;DHT22;18313;48.518;9.124;2023-02-19T04:57:44;10.00;99.90
31735;DHT22;18313;48.518;9.124;2023-02-19T05:00:12;10.10;99.90
31735;DHT22;18313;48.518;9.124;2023-02-19T05:02:39;10.10;99.90
31735;DHT22;18313;48.518;9.124;2023-02-19T05:05:07;10.10;99.90
31735;DHT22;18313;48.518;9.124;2023-02-19T05:07:34;10.10;99.90
31735;DHT22;18313;48.518;9.124;2023-02-19T05:10:01;10.10;99.90
31735;DHT22;18313;48.518;9.124;2023-02-19T05:12:29;10.00;99.90
31735;DHT22;18313;48.518;9.124;2023-02-19T05:14:56;10.00;99.90
31735;DHT22;18313;48.518;9.124;2023-02-19T05:17:23;10.10;99.90
31735;DHT22;18313;48.518;9.124;2023-02-19T05:19:51;10.10;99.90
31735;DHT22;18313;48.518;9.124;2023-02-19T05:22:18;10.10;99.90
31735;DHT22;18313;48.518;9.124;2023-02-19T05:24:45;10.10;99.90
31735;DHT22;18313;48.518;9.124;2023-02-19T05:27:12;10.00;99.90
31735;DHT22;18313;48.518;9.124;2023-02-19T05:29:39;10.00;99.90
31735;DHT22;18313;48.518;9.124;2023-02-19T05:32:06;10.00;99.90
31735;DHT22;18313;48.518;9.124;2023-02-19T05:34:33;9.90;99.90
31735;DHT22;18313;48.518;9.124;2023-02-19T05:37:00;9.90;99.90
31735;DHT22;18313;48.518;9.124;2023-02-19T05:39:27;9.90;99.90
31735;DHT22;18313;48.518;9.124;2023-02-19T05:41:54;9.90;99.90
31735;DHT22;18313;48.518;9.124;2023-02-19T05:44:21;9.90;99.90
31735;DHT22;18313;48.518;9.124;2023-02-19T05:46:48;9.80;99.90
31735;DHT22;18313;48.518;9.124;2023-02-19T05:49:15;9.80;99.90
31735;DHT22;18313;48.518;9.124;2023-02-19T05:51:42;9.80;99.90
31735;DHT22;18313;48.518;9.124;2023-02-19T05:54:09;9.90;99.90
31735;DHT22;18313;48.518;9.124;2023-02-19T05:56:38;9.90;99.90
31735;DHT22;18313;48.518;9.124;2023-02-19T05:59:20;9.80;99.90
31735;DHT22;18313;48.518;9.124;2023-02-19T06:01:49;9.80;99.90
31735;DHT22;18313;48.518;9.124;2023-02-19T06:04:17;9.80;99.90
31735;DHT22;18313;48.518;9.124;2023-02-19T06:06:46;9.80;99.90
31735;DHT22;18313;48.518;9.124;2023-02-19T06:09:14;9.80;99.90
31735;DHT22;18313;48.518;9.124;2023-02-19T06:11:41;9.70;99.90
31735;DHT22;18313;48.518;9.124;2023-02-19T06:14:11;9.80;99.90
31735;DHT22;18313;48.518;9.124;2023-02-19T06:16:39;9.80;99.90
31735;DHT22;18313;48.518;9.124;2023-02-19T06:19:06;9.80;99.90
31735;DHT22;18313;48.518;9.124;2023-02-19T06:21:33;9.80;99.90
31735;DHT22;18313;48.518;9.124;2023-02-19T06:24:07;9.70;99.90
31735;DHT22;18313;48.518;9.124;2023-02-19T06:26:34;9.70;99.90
31735;DHT22;18313;48.518;9.124;2023-02-19T06:29:03;9.70;99.90
31735;DHT22;18313;48.518;9.124;2023-02-19T06:31:30;9.70;99.90
31735;DHT22;18313;48.518;9.124;2023-02-19T06:33:57;9.80;99.90
31735;DHT22;18313;48.518;9.124;2023-02-19T06:36:24;9.80;99.90
31735;DHT22;18313;48.518;9.124;2023-02-19T06:38:51;9.70;99.90
31735;DHT22;18313;48.518;9.124;2023-02-19T06:41:18;9.70;99.90
31735;DHT22;18313;48.518;9.124;2023-02-19T06:43:45;9.70;99.90
31735;DHT22;18313;48.518;9.124;2023-02-19T06:46:13;9.70;99.90
31735;DHT22;18313;48.518;9.124;2023-02-19T06:48:41;9.80;99.90
31735;DHT22;18313;48.518;9.124;2023-02-19T06:51:14;9.80;99.90
31735;DHT22;18313;48.518;9.124;2023-02-19T06:53:41;9.80;99.90
31735;DHT22;18313;48.518;9.124;2023-02-19T06:56:28;9.80;99.90
31735;DHT22;18313;48.518;9.124;2023-02-19T06:58:58;9.80;99.90
31735;DHT22;18313;48.518;9.124;2023-02-19T07:01:29;9.80;99.90
31735;DHT22;18313;48.518;9.124;2023-02-19T07:03:57;9.70;99.90
31735;DHT22;18313;48.518;9.124;2023-02-19T07:06:25;9.60;99.90
31735;DHT22;18313;48.518;9.124;2023-02-19T07:08:54;9.60;99.90
31735;DHT22;18313;48.518;9.124;2023-02-19T07:11:21;9.50;99.90
31735;DHT22;18313;48.518;9.124;2023-02-19T07:14:00;9.40;99.90
31735;DHT22;18313;48.518;9.124;2023-02-19T07:16:28;9.40;99.90
31735;DHT22;18313;48.518;9.124;2023-02-19T07:18:57;9.40;99.90
31735;DHT22;18313;48.518;9.124;2023-02-19T07:21:25;9.30;99.90
31735;DHT22;18313;48.518;9.124;2023-02-19T07:23:53;9.30;99.90
31735;DHT22;18313;48.518;9.124;2023-02-19T07:26:21;9.30;99.90
31735;DHT22;18313;48.518;9.124;2023-02-19T07:28:49;9.30;99.90
31735;DHT22;18313;48.518;9.124;2023-02-19T07:31:18;9.30;99.90
31735;DHT22;18313;48.518;9.124;2023-02-19T07:33:46;9.30;99.90
31735;DHT22;18313;48.518;9.124;2023-02-19T07:36:15;9.30;99.90
31735;DHT22;18313;48.518;9.124;2023-02-19T07:38:43;9.30;99.90
31735;DHT22;18313;48.518;9.124;2023-02-19T07:41:11;9.30;99.90
31735;DHT22;18313;48.518;9.124;2023-02-19T07:43:39;9.30;99.90
31735;DHT22;18313;48.518;9.124;2023-02-19T07:46:09;9.30;99.90
31735;DHT22;18313;48.518;9.124;2023-02-19T07:48:37;9.30;99.90
31735;DHT22;18313;48.518;9.124;2023-02-19T07:51:06;9.30;99.90
31735;DHT22;18313;48.518;9.124;2023-02-19T07:53:34;9.30;99.90
31735;DHT22;18313;48.518;9.124;2023-02-19T07:56:03;9.30;99.90
31735;DHT22;18313;48.518;9.124;2023-02-19T07:58:32;9.30;99.90
31735;DHT22;18313;48.518;9.124;2023-02-19T08:01:10;9.30;99.90
31735;DHT22;18313;48.518;9.124;2023-02-19T08:03:39;9.30;99.90
31735;DHT22;18313;48.518;9.124;2023-02-19T08:06:08;9.30;99.90
31735;DHT22;18313;48.518;9.124;2023-02-19T08:08:38;9.30;99.90
31735;DHT22;18313;48.518;9.124;2023-02-19T08:11:06;9.40;99.90
31735;DHT22;18313;48.518;9.124;2023-02-19T08:13:52;9.40;99.90
31735;DHT22;18313;48.518;9.124;2023-02-19T08:16:20;9.40;99.90
31735;DHT22;18313;48.518;9.124;2023-02-19T08:19:06;9.40;99.90
31735;DHT22;18313;48.518;9.124;2023-02-19T08:21:33;9.50;99.90
31735;DHT22;18313;48.518;9.124;2023-02-19T08:24:00;9.50;99.90
31735;DHT22;18313;48.518;9.124;2023-02-19T08:26:27;9.50;99.90
31735;DHT22;18313;48.518;9.124;2023-02-19T08:28:55;9.50;99.90
31735;DHT22;18313;48.518;9.124;2023-02-19T08:31:22;9.50;99.90
31735;DHT22;18313;48.518;9.124;2023-02-19T08:33:49;9.50;99.90
31735;DHT22;18313;48.518;9.124;2023-02-19T08:36:16;9.50;99.90
31735;DHT22;18313;48.518;9.124;2023-02-19T08:38:43;9.50;99.90
31735;DHT22;18313;48.518;9.124;2023-02-19T08:41:12;9.50;99.90
31735;DHT22;18313;48.518;9.124;2023-02-19T08:43:41;9.50;99.90
31735;DHT22;18313;48.518;9.124;2023-02-19T08:46:09;9.40;99.90
31735;DHT22;18313;48.518;9.124;2023-02-19T08:48:37;9.40;99.90
31735;DHT22;18313;48.518;9.124;2023-02-19T08:51:07;9.40;99.90
31735;DHT22;18313;48.518;9.124;2023-02-19T08:53:36;9.50;99.90
31735;DHT22;18313;48.518;9.124;2023-02-19T08:56:09;9.50;99.90
31735;DHT22;18313;48.518;9.124;2023-02-19T08:58:37;9.60;99.90
31735;DHT22;18313;48.518;9.124;2023-02-19T09:01:09;9.60;99.90
31735;DHT22;18313;48.518;9.124;2023-02-19T09:03:38;9.60;99.90
31735;DHT22;18313;48.518;9.124;2023-02-19T09:06:05;9.60;99.90
31735;DHT22;18313;48.518;9.124;2023-02-19T09:08:33;9.60;99.90
31735;DHT22;18313;48.518;9.124;2023-02-19T09:11:01;9.60;99.90
31735;DHT22;18313;48.518;9.124;2023-02-19T09:13:29;9.60;99.90
31735;DHT22;18313;48.518;9.124;2023-02-19T09:15:56;9.70;99.90
31735;DHT22;18313;48.518;9.124;2023-02-19T09:18:24;9.80;99.90
31735;DHT22;18313;48.518;9.124;2023-02-19T09:20:51;9.80;99.90
31735;DHT22;18313;48.518;9.124;2023-02-19T09:23:18;9.80;99.90
31735;DHT22;18313;48.518;9.124;2023-02-19T09:25:45;9.80;99.90
31735;DHT22;18313;48.518;9.124;2023-02-19T09:28:12;9.90;99.90
31735;DHT22;18313;48.518;9.124;2023-02-19T09:30:39;9.80;99.90
31735;DHT22;18313;48.518;9.124;2023-02-19T09:33:08;9.80;99.90
31735;DHT22;18313;48.518;9.124;2023-02-19T09:35:38;9.90;99.90
31735;DHT22;18313;48.518;9.124;2023-02-19T09:38:05;9.90;99.90
31735;DHT22;18313;48.518;9.124;2023-02-19T09:40:35;9.90;99.90
31735;DHT22;18313;48.518;9.124;2023-02-19T09:43:06;9.90;99.90
31735;DHT22;18313;48.518;9.124;2023-02-19T09:45:35;9.80;99.90
31735;DHT22;18313;48.518;9.124;2023-02-19T09:48:04;9.90;99.90
31735;DHT22;18313;48.518;9.124;2023-02-19T09:50:40;9.90;99.90
31735;DHT22;18313;48.518;9.124;2023-02-19T09:53:19;10.00;99.90
31735;DHT22;18313;48.518;9.124;2023-02-19T09:55:48;10.00;99.90
31735;DHT22;18313;48.518;9.124;2023-02-19T09:58:23;10.00;99.90
31735;DHT22;18313;48.518;9.124;2023-02-19T10:00:54;10.00;99.90
31735;DHT22;18313;48.518;9.124;2023-02-19T10:03:26;10.10;99.90
31735;DHT22;18313;48.518;9.124;2023-02-19T10:06:04;10.10;99.90
31735;DHT22;18313;48.518;9.124;2023-02-19T10:08:34;10.10;99.90
31735;DHT22;18313;48.518;9.124;2023-02-19T10:11:04;10.10;99.90
31735;DHT22;18313;48.518;9.124;2023-02-19T10:13:41;10.10;99.90
31735;DHT22;18313;48.518;9.124;2023-02-19T10:16:19;10.20;99.90
31735;DHT22;18313;48.518;9.124;2023-02-19T10:18:48;10.20;99.90
31735;DHT22;18313;48.518;9.124;2023-02-19T10:21:18;10.20;99.90
31735;DHT22;18313;48.518;9.124;2023-02-19T10:23:49;10.10;99.90
31735;DHT22;18313;48.518;9.124;2023-02-19T10:26:18;10.10;99.90
31735;DHT22;18313;48.518;9.124;2023-02-19T10:28:45;10.20;99.90
31735;DHT22;18313;48.518;9.124;2023-02-19T10:31:23;10.20;99.90
31735;DHT22;18313;48.518;9.124;2023-02-19T10:33:53;10.20;99.90
31735;DHT22;18313;48.518;9.124;2023-02-19T10:36:40;10.10;99.90
31735;DHT22;18313;48.518;9.124;2023-02-19T10:39:33;10.00;99.90
31735;DHT22;18313;48.518;9.124;2023-02-19T10:42:03;9.90;99.90
31735;DHT22;18313;48.518;9.124;2023-02-19T10:44:37;9.90;99.90
31735;DHT22;18313;48.518;9.124;2023-02-19T10:47:18;9.80;99.90
31735;DHT22;18313;48.518;9.124;2023-02-19T10:49:46;9.80;99.90
31735;DHT22;18313;48.518;9.124;2023-02-19T10:52:24;9.80;99.90
31735;DHT22;18313;48.518;9.124;2023-02-19T10:54:56;9.90;99.90
31735;DHT22;18313;48.518;9.124;2023-02-19T10:57:29;10.00;99.90
31735;DHT22;18313;48.518;9.124;2023-02-19T11:00:01;10.10;99.90
31735;DHT22;18313;48.518;9.124;2023-02-19T11:02:30;10.10;99.90
31735;DHT22;18313;48.518;9.124;2023-02-19T11:07:49;10.20;99.90
31735;DHT22;18313;48.518;9.124;2023-02-19T11:10:40;10.30;99.90
31735;DHT22;18313;48.518;9.124;2023-02-19T11:13:15;10.40;99.90
31735;DHT22;18313;48.518;9.124;2023-02-19T11:15:42;10.40;99.90
31735;DHT22;18313;48.518;9.124;2023-02-19T11:20:55;10.50;99.90
31735;DHT22;18313;48.518;9.124;2023-02-19T11:23:33;10.50;99.90
31735;DHT22;18313;48.518;9.124;2023-02-19T11:26:12;10.50;99.90
31735;DHT22;18313;48.518;9.124;2023-02-19T11:28:42;10.60;99.90
31735;DHT22;18313;48.518;9.124;2023-02-19T11:37:06;10.70;99.90
31735;DHT22;18313;48.518;9.124;2023-02-19T11:39:33;10.80;99.90
31735;DHT22;18313;48.518;9.124;2023-02-19T11:47:41;10.90;99.90
31735;DHT22;18313;48.518;9.124;2023-02-19T11:50:28;10.80;99.90
31735;DHT22;18313;48.518;9.124;2023-02-19T11:59:15;10.90;99.90
31735;DHT22;18313;48.518;9.124;2023-02-19T12:07:22;10.90;99.90
31735;DHT22;18313;48.518;9.124;2023-02-19T12:40:14;10.90;99.90
31735;DHT22;18313;48.518;9.124;2023-02-19T12:45:22;10.90;99.90
31735;DHT22;18313;48.518;9.124;2023-02-19T12:48:04;10.90;99.90
31735;DHT22;18313;48.518;9.124;2023-02-19T12:50:34;10.80;99.90
31735;DHT22;18313;48.518;9.124;2023-02-19T12:53:40;10.70;99.90
31735;DHT22;18313;48.518;9.124;2023-02-19T12:56:17;10.70;99.90
31735;DHT22;18313;48.518;9.124;2023-02-19T12:58:51;10.70;99.90
31735;DHT22;18313;48.518;9.124;2023-02-19T13:01:25;10.70;99.90
31735;DHT22;18313;48.518;9.124;2023-02-19T13:07:04;10.80;99.90
31735;DHT22;18313;48.518;9.124;2023-02-19T13:09:49;10.90;99.90
31735;DHT22;18313;48.518;9.124;2023-02-19T13:12:23;10.90;99.90
31735;DHT22;18313;48.518;9.124;2023-02-19T13:14:56;11.00;99.90
31735;DHT22;18313;48.518;9.124;2023-02-19T13:17:26;11.00;99.90
31735;DHT22;18313;48.518;9.124;2023-02-19T13:19:59;11.20;99.90
31735;DHT22;18313;48.518;9.124;2023-02-19T13:22:33;11.20;99.90
31735;DHT22;18313;48.518;9.124;2023-02-19T13:25:20;11.30;99.90
31735;DHT22;18313;48.518;9.124;2023-02-19T13:36:19;11.80;99.90
31735;DHT22;18313;48.518;9.124;2023-02-19T13:38:49;11.80;99.90
31735;DHT22;18313;48.518;9.124;2023-02-19T13:41:19;11.80;99.90
31735;DHT22;18313;48.518;9.124;2023-02-19T13:43:54;11.70;99.90
31735;DHT22;18313;48.518;9.124;2023-02-19T13:46:21;11.70;99.90
31735;DHT22;18313;48.518;9.124;2023-02-19T13:51:55;11.70;99.90
31735;DHT22;18313;48.518;9.124;2023-02-19T13:54:35;11.80;99.90
31735;DHT22;18313;48.518;9.124;2023-02-19T13:59:52;11.60;99.90
31735;DHT22;18313;48.518;9.124;2023-02-19T14:05:00;11.60;99.90
31735;DHT22;18313;48.518;9.124;2023-02-19T14:07:34;11.60;99.90
31735;DHT22;18313;48.518;9.124;2023-02-19T14:10:04;11.60;99.90
31735;DHT22;18313;48.518;9.124;2023-02-19T14:12:34;11.60;99.90
31735;DHT22;18313;48.518;9.124;2023-02-19T14:17:51;11.40;99.90
31735;DHT22;18313;48.518;9.124;2023-02-19T14:20:43;11.40;99.90
31735;DHT22;18313;48.518;9.124;2023-02-19T14:23:16;11.30;99.90
31735;DHT22;18313;48.518;9.124;2023-02-19T14:25:51;11.20;99.90
31735;DHT22;18313;48.518;9.124;2023-02-19T14:28:29;11.10;99.90
31735;DHT22;18313;48.518;9.124;2023-02-19T14:31:09;11.10;99.90
31735;DHT22;18313;48.518;9.124;2023-02-19T14:33:52;11.00;99.90
31735;DHT22;18313;48.518;9.124;2023-02-19T14:39:10;10.90;99.90
31735;DHT22;18313;48.518;9.124;2023-02-19T14:41:41;10.80;99.90
31735;DHT22;18313;48.518;9.124;2023-02-19T14:44:19;10.80;99.90
31735;DHT22;18313;48.518;9.124;2023-02-19T14:46:55;10.70;99.90
31735;DHT22;18313;48.518;9.124;2023-02-19T14:49:28;10.50;99.90
31735;DHT22;18313;48.518;9.124;2023-02-19T14:52:05;10.40;99.90
31735;DHT22;18313;48.518;9.124;2023-02-19T14:54:47;10.30;99.90
31735;DHT22;18313;48.518;9.124;2023-02-19T14:57:38;10.30;99.90
31735;DHT22;18313;48.518;9.124;2023-02-19T15:00:21;10.40;99.90
31735;DHT22;18313;48.518;9.124;2023-02-19T15:02:51;10.40;99.90
31735;DHT22;18313;48.518;9.124;2023-02-19T15:05:23;10.40;99.90
31735;DHT22;18313;48.518;9.124;2023-02-19T15:07:53;10.40;99.90
31735;DHT22;18313;48.518;9.124;2023-02-19T15:10:21;10.20;99.90
31735;DHT22;18313;48.518;9.124;2023-02-19T15:12:55;10.20;99.90
31735;DHT22;18313;48.518;9.124;2023-02-19T15:15:31;10.20;99.90
31735;DHT22;18313;48.518;9.124;2023-02-19T15:18:00;10.20;99.90
31735;DHT22;18313;48.518;9.124;2023-02-19T15:20:31;10.30;99.90
31735;DHT22;18313;48.518;9.124;2023-02-19T15:23:00;10.20;99.90
31735;DHT22;18313;48.518;9.124;2023-02-19T15:25:36;10.30;99.90
31735;DHT22;18313;48.518;9.124;2023-02-19T15:31:13;10.30;99.90
31735;DHT22;18313;48.518;9.124;2023-02-19T15:33:51;10.20;99.90
31735;DHT22;18313;48.518;9.124;2023-02-19T15:36:29;10.30;99.90
31735;DHT22;18313;48.518;9.124;2023-02-19T15:39:00;10.10;99.90
31735;DHT22;18313;48.518;9.124;2023-02-19T15:41:32;10.10;99.90
31735;DHT22;18313;48.518;9.124;2023-02-19T15:44:26;10.10;99.90
31735;DHT22;18313;48.518;9.124;2023-02-19T15:46:56;10.00;99.90
31735;DHT22;18313;48.518;9.124;2023-02-19T15:49:34;9.90;99.90
31735;DHT22;18313;48.518;9.124;2023-02-19T15:52:07;9.80;99.90
31735;DHT22;18313;48.518;9.124;2023-02-19T15:54:56;9.90;99.90
31735;DHT22;18313;48.518;9.124;2023-02-19T15:57:31;9.80;99.90
31735;DHT22;18313;48.518;9.124;2023-02-19T16:00:08;9.80;99.90
31735;DHT22;18313;48.518;9.124;2023-02-19T16:02:38;9.80;99.90
31735;DHT22;18313;48.518;9.124;2023-02-19T16:05:11;9.80;99.90
31735;DHT22;18313;48.518;9.124;2023-02-19T16:07:38;9.80;99.90
31735;DHT22;18313;48.518;9.124;2023-02-19T16:10:24;9.80;99.90
31735;DHT22;18313;48.518;9.124;2023-02-19T16:12:56;9.80;99.90
31735;DHT22;18313;48.518;9.124;2023-02-19T16:15:24;9.80;99.90
31735;DHT22;18313;48.518;9.124;2023-02-19T16:17:52;9.80;99.90
31735;DHT22;18313;48.518;9.124;2023-02-19T16:20:28;9.80;99.90
31735;DHT22;18313;48.518;9.124;2023-02-19T16:23:10;9.90;99.90
31735;DHT22;18313;48.518;9.124;2023-02-19T16:25:40;9.90;99.90
31735;DHT22;18313;48.518;9.124;2023-02-19T16:28:10;9.90;99.90
31735;DHT22;18313;48.518;9.124;2023-02-19T16:30:38;9.90;99.90
31735;DHT22;18313;48.518;9.124;2023-02-19T16:33:42;9.90;99.90
31735;DHT22;18313;48.518;9.124;2023-02-19T16:36:37;9.90;99.90
31735;DHT22;18313;48.518;9.124;2023-02-19T16:46:48;9.70;99.90
31735;DHT22;18313;48.518;9.124;2023-02-19T16:49:15;9.60;99.90
31735;DHT22;18313;48.518;9.124;2023-02-19T16:51:44;9.60;99.90
31735;DHT22;18313;48.518;9.124;2023-02-19T16:54:11;9.60;99.90
31735;DHT22;18313;48.518;9.124;2023-02-19T16:56:39;9.50;99.90
31735;DHT22;18313;48.518;9.124;2023-02-19T16:59:06;9.30;99.90
31735;DHT22;18313;48.518;9.124;2023-02-19T17:01:34;9.30;99.90
31735;DHT22;18313;48.518;9.124;2023-02-19T17:04:04;9.20;99.90
31735;DHT22;18313;48.518;9.124;2023-02-19T17:06:32;9.10;99.90
31735;DHT22;18313;48.518;9.124;2023-02-19T17:09:00;9.00;99.90
31735;DHT22;18313;48.518;9.124;2023-02-19T17:11:27;9.00;99.90
31735;DHT22;18313;48.518;9.124;2023-02-19T17:13:55;9.00;99.90
31735;DHT22;18313;48.518;9.124;2023-02-19T17:16:25;9.00;99.90
31735;DHT22;18313;48.518;9.124;2023-02-19T17:18:57;9.00;99.90
31735;DHT22;18313;48.518;9.124;2023-02-19T17:21:29;9.00;99.90
31735;DHT22;18313;48.518;9.124;2023-02-19T17:23:56;8.90;99.90
31735;DHT22;18313;48.518;9.124;2023-02-19T17:26:26;8.90;99.90
31735;DHT22;18313;48.518;9.124;2023-02-19T17:28:57;8.90;99.90
31735;DHT22;18313;48.518;9.124;2023-02-19T17:31:25;8.90;99.90
31735;DHT22;18313;48.518;9.124;2023-02-19T17:33:53;8.90;99.90
31735;DHT22;18313;48.518;9.124;2023-02-19T17:36:29;8.90;99.90
31735;DHT22;18313;48.518;9.124;2023-02-19T17:38:57;9.00;99.90
31735;DHT22;18313;48.518;9.124;2023-02-19T17:41:26;8.90;99.90
31735;DHT22;18313;48.518;9.124;2023-02-19T17:43:53;8.90;99.90
31735;DHT22;18313;48.518;9.124;2023-02-19T17:46:23;8.90;99.90
31735;DHT22;18313;48.518;9.124;2023-02-19T17:48:51;8.90;99.90
31735;DHT22;18313;48.518;9.124;2023-02-19T17:51:18;9.00;99.90
31735;DHT22;18313;48.518;9.124;2023-02-19T17:53:45;8.90;99.90
31735;DHT22;18313;48.518;9.124;2023-02-19T17:56:23;8.90;99.90
31735;DHT22;18313;48.518;9.124;2023-02-19T17:58:54;8.90;99.90
31735;DHT22;18313;48.518;9.124;2023-02-19T18:01:23;8.90;99.90
31735;DHT22;18313;48.518;9.124;2023-02-19T18:03:50;8.80;99.90
31735;DHT22;18313;48.518;9.124;2023-02-19T18:06:18;8.80;99.90